Time;durP1;ratioP1;P1;durP2;ratioP2;P2;SDS_P1;SDS_P2;PMS_P1;PMS_P2;Temp;Humidity;BMP_temperature;BMP_pressure;BME280_temperature;BME280_humidity;BME280_pressure;Samples;Min_cycle;Max_cycle;Signal;HPM_P1;HPM_P2
2023/09/30 00:01:29;;;;;;;8.13;6.90;;;;;;;23.61;50.77;101643.28;5029012;28;20510;-61
2023/09/30 00:03:56;;;;;;;7.60;6.80;;;;;;;23.61;50.96;101640.59;5030817;28;20057;-61
2023/09/30 00:06:24;;;;;;;8.68;7.00;;;;;;;23.61;50.70;101637.88;5028868;28;20054;-61
2023/09/30 00:08:52;;;;;;;8.63;7.43;;;;;;;23.60;50.82;101641.59;5034085;28;20053;-61
2023/09/30 00:11:19;;;;;;;10.35;7.65;;;;;;;23.61;51.04;101637.03;5033909;28;20420;-61
2023/09/30 00:13:49;;;;;;;7.75;6.50;;;;;;;23.61;50.96;101639.75;5030528;28;20045;-61
2023/09/30 00:16:17;;;;;;;8.00;6.85;;;;;;;23.60;50.60;101630.78;5029383;28;20057;-61
2023/09/30 00:18:45;;;;;;;8.02;7.22;;;;;;;23.61;50.53;101631.63;5032594;28;20471;-61
2023/09/30 00:21:15;;;;;;;8.73;6.97;;;;;;;23.60;50.28;101619.13;5030110;28;20369;-60
2023/09/30 00:23:42;;;;;;;9.38;7.25;;;;;;;23.60;50.12;101611.00;5032147;28;20619;-60
2023/09/30 00:26:09;;;;;;;8.55;7.10;;;;;;;23.58;49.89;101605.75;5028761;28;20053;-60
2023/09/30 00:28:39;;;;;;;8.45;6.63;;;;;;;23.59;50.13;101620.97;5032300;28;20061;-61
2023/09/30 00:31:10;;;;;;;8.43;6.65;;;;;;;23.59;49.99;101618.28;5028967;28;20045;-60
2023/09/30 00:33:38;;;;;;;7.90;7.10;;;;;;;23.58;50.01;101613.88;5033330;28;20045;-60
2023/09/30 00:36:09;;;;;;;8.52;6.53;;;;;;;23.59;50.07;101633.63;5026389;28;20094;-60
2023/09/30 00:38:37;;;;;;;8.20;6.03;;;;;;;23.59;50.32;101626.38;5028387;28;20054;-61
2023/09/30 00:41:04;;;;;;;8.68;6.70;;;;;;;23.60;50.38;101627.22;5029724;28;20492;-60
2023/09/30 00:43:32;;;;;;;9.63;5.88;;;;;;;23.60;50.25;101621.81;5028768;28;20049;-61
2023/09/30 00:46:13;;;;;;;7.32;6.63;;;;;;;23.60;50.10;101629.94;5026299;28;20049;-61
2023/09/30 00:48:41;;;;;;;8.15;6.95;;;;;;;23.60;50.25;101624.53;5029989;28;20056;-60
2023/09/30 00:51:09;;;;;;;8.82;6.20;;;;;;;23.58;50.13;101627.38;5029737;28;20042;-60
2023/09/30 00:53:37;;;;;;;7.72;6.78;;;;;;;23.58;49.97;101632.78;5025823;28;20049;-60
2023/09/30 00:56:05;;;;;;;8.93;6.75;;;;;;;23.58;49.96;101638.19;5027793;28;20053;-60
2023/09/30 00:58:35;;;;;;;6.30;5.50;;;;;;;23.58;50.18;101643.59;5028085;28;20057;-60
2023/09/30 01:01:03;;;;;;;7.55;6.65;;;;;;;23.58;50.31;101642.75;5029508;28;20392;-60
2023/09/30 01:03:31;;;;;;;8.18;6.97;;;;;;;23.57;50.33;101644.56;5026117;28;20049;-60
2023/09/30 01:05:58;;;;;;;6.70;5.97;;;;;;;23.58;50.21;101634.63;5028290;28;20499;-60
2023/09/30 01:08:27;;;;;;;7.20;6.47;;;;;;;23.57;50.47;101635.59;5029277;28;20037;-61
2023/09/30 01:10:56;;;;;;;7.70;6.70;;;;;;;23.58;50.24;101629.22;5029092;28;20515;-60
2023/09/30 01:13:31;;;;;;;8.80;6.90;;;;;;;23.56;50.12;101623.94;5025781;28;20139;-60
2023/09/30 01:15:58;;;;;;;8.30;6.72;;;;;;;23.56;50.30;101626.66;5023944;28;20057;-60
2023/09/30 01:18:25;;;;;;;10.10;7.53;;;;;;;23.57;50.66;101625.66;5029294;28;20049;-60
2023/09/30 01:20:55;;;;;;;7.43;6.65;;;;;;;23.55;50.52;101630.34;5028279;28;20056;-60
2023/09/30 01:23:22;;;;;;;7.78;6.95;;;;;;;23.56;50.21;101629.34;5025651;28;20046;-60
2023/09/30 01:25:50;;;;;;;7.80;6.45;;;;;;;23.54;50.11;101615.13;5029416;28;20049;-60
2023/09/30 01:28:18;;;;;;;7.38;6.68;;;;;;;23.55;50.62;101616.00;5029367;28;20384;-60
2023/09/30 01:30:45;;;;;;;7.72;6.82;;;;;;;23.54;50.23;101617.00;5028098;28;20046;-60
2023/09/30 01:33:13;;;;;;;7.20;5.97;;;;;;;23.53;50.53;101615.25;5025595;28;20046;-61
2023/09/30 01:35:41;;;;;;;7.97;7.18;;;;;;;23.53;50.39;101617.97;5029080;28;20060;-61
2023/09/30 01:38:08;;;;;;;8.30;6.40;;;;;;;23.51;50.60;101612.72;5012753;28;20050;-61
2023/09/30 01:40:37;;;;;;;8.88;7.18;;;;;;;23.51;50.38;101609.16;5021555;28;20041;-60
2023/09/30 01:43:04;;;;;;;8.07;7.18;;;;;;;23.50;50.53;101611.00;5022595;28;20061;-60
2023/09/30 01:45:32;;;;;;;9.10;7.05;;;;;;;23.50;50.49;101607.44;5027465;28;20054;-60
2023/09/30 01:47:59;;;;;;;8.55;6.35;;;;;;;23.49;50.58;101603.88;5043690;28;20057;-60
2023/09/30 01:50:27;;;;;;;11.45;7.15;;;;;;;23.49;50.63;101606.56;5027582;28;20388;-61
2023/09/30 01:52:54;;;;;;;8.07;7.10;;;;;;;23.51;50.87;101609.16;5022056;28;20054;-60
2023/09/30 01:55:22;;;;;;;8.32;6.78;;;;;;;23.50;50.80;101608.31;5027736;28;20395;-62
2023/09/30 01:57:49;;;;;;;7.88;7.07;;;;;;;23.53;50.94;101610.72;5028732;28;20503;-62
2023/09/30 02:00:17;;;;;;;7.40;6.63;;;;;;;23.56;51.36;101596.91;5026079;28;20512;-61
2023/09/30 02:02:44;;;;;;;8.00;6.38;;;;;;;23.58;51.23;101592.25;5037334;28;20058;-61
2023/09/30 02:05:12;;;;;;;6.70;5.97;;;;;;;23.62;51.11;101595.53;5028579;28;20056;-61
2023/09/30 02:07:39;;;;;;;6.57;5.97;;;;;;;23.64;51.30;101594.38;5031911;28;20050;-61
2023/09/30 02:10:07;;;;;;;8.10;6.20;;;;;;;23.67;51.68;101595.97;5029383;28;20049;-61
2023/09/30 02:12:36;;;;;;;6.32;5.72;;;;;;;23.68;52.02;101585.00;5024810;28;20053;-62
2023/09/30 02:15:07;;;;;;;6.25;5.65;;;;;;;23.71;52.68;101588.44;5030368;28;20057;-63
2023/09/30 02:17:34;;;;;;;7.65;5.97;;;;;;;23.73;52.75;101595.38;5032020;28;20053;-62
2023/09/30 02:20:06;;;;;;;6.97;5.53;;;;;;;23.74;52.94;101598.94;5028523;28;20045;-61
2023/09/30 02:22:34;;;;;;;6.60;5.75;;;;;;;23.75;52.55;101600.66;5031845;28;20050;-63
2023/09/30 02:25:01;;;;;;;6.93;6.07;;;;;;;23.76;52.62;101600.53;5032064;28;20109;-62
2023/09/30 02:27:28;;;;;;;6.00;5.40;;;;;;;23.77;52.75;101602.22;5030598;28;20057;-62
2023/09/30 02:29:57;;;;;;;6.28;5.38;;;;;;;23.78;52.63;101605.78;5030329;28;20050;-61
2023/09/30 02:32:24;;;;;;;6.05;5.18;;;;;;;23.79;52.38;101604.81;5031691;28;20064;-61
2023/09/30 02:34:53;;;;;;;6.97;5.93;;;;;;;23.79;52.49;101597.53;5031506;28;20057;-61
2023/09/30 02:37:21;;;;;;;8.27;6.32;;;;;;;23.81;52.52;101602.78;5028563;28;20053;-61
2023/09/30 02:39:48;;;;;;;7.38;6.03;;;;;;;23.81;52.60;101595.53;5040074;28;20420;-61
2023/09/30 02:42:16;;;;;;;7.45;6.20;;;;;;;23.81;53.10;101610.91;5024744;28;20416;-61
2023/09/30 02:44:43;;;;;;;6.30;5.47;;;;;;;23.81;53.18;101610.91;5042635;28;20053;-61
2023/09/30 02:47:10;;;;;;;6.22;5.28;;;;;;;23.81;53.26;101608.19;5028174;28;20052;-61
2023/09/30 02:49:38;;;;;;;6.40;5.60;;;;;;;23.81;52.87;101619.00;5025699;28;20381;-61
2023/09/30 02:52:06;;;;;;;6.38;5.78;;;;;;;23.82;52.69;101607.19;5026315;28;20404;-62
2023/09/30 02:54:33;;;;;;;7.18;5.68;;;;;;;23.82;53.09;101609.91;5019605;28;20049;-62
2023/09/30 02:57:03;;;;;;;6.32;5.60;;;;;;;23.81;52.85;101605.50;5026586;28;20054;-62
2023/09/30 02:59:31;;;;;;;6.82;5.78;;;;;;;23.82;52.62;101599.97;5024859;28;20054;-61
2023/09/30 03:01:58;;;;;;;7.50;5.45;;;;;;;23.82;52.77;101597.25;5025769;28;20057;-61
2023/09/30 03:04:28;;;;;;;7.03;6.20;;;;;;;23.83;52.65;101606.22;5027963;28;20061;-62
2023/09/30 03:06:56;;;;;;;8.40;6.22;;;;;;;23.83;52.81;101600.81;5028934;28;20058;-62
2023/09/30 03:09:23;;;;;;;7.15;5.75;;;;;;;23.84;52.99;101597.09;5027882;28;20057;-62
2023/09/30 03:11:51;;;;;;;7.60;5.78;;;;;;;23.83;53.06;101587.28;5030639;28;20046;-62
2023/09/30 03:14:18;;;;;;;5.85;5.25;;;;;;;23.85;52.85;101587.97;5031219;28;20049;-62
2023/09/30 03:16:46;;;;;;;7.35;6.13;;;;;;;23.84;52.81;101580.88;5031261;28;20045;-62
2023/09/30 03:19:16;;;;;;;6.63;6.03;;;;;;;23.84;53.22;101581.72;5027761;28;20522;-61
2023/09/30 03:21:43;;;;;;;6.20;5.60;;;;;;;23.85;53.16;101580.72;5031012;28;20428;-61
2023/09/30 03:24:12;;;;;;;7.00;5.30;;;;;;;23.85;53.06;101580.72;5031184;28;20056;-61
2023/09/30 03:26:41;;;;;;;7.50;5.30;;;;;;;23.85;53.17;101580.72;5031187;28;20049;-61
2023/09/30 03:29:09;;;;;;;6.00;5.13;;;;;;;23.85;52.82;101575.31;5027857;28;20057;-62
2023/09/30 03:31:37;;;;;;;6.32;5.72;;;;;;;23.85;52.25;101578.03;5031159;28;20068;-62
2023/09/30 03:34:05;;;;;;;7.15;6.20;;;;;;;23.85;52.04;101580.72;5031031;28;20041;-62
2023/09/30 03:36:33;;;;;;;7.10;5.97;;;;;;;23.85;52.33;101579.88;5030728;28;20056;-62
2023/09/30 03:39:00;;;;;;;5.82;5.32;;;;;;;23.85;51.93;101577.16;5027018;28;20054;-61
2023/09/30 03:41:28;;;;;;;6.15;5.53;;;;;;;23.86;51.86;101573.47;5030853;28;20064;-62
2023/09/30 03:43:57;;;;;;;7.10;5.65;;;;;;;23.85;51.96;101574.47;5031151;28;20404;-62
2023/09/30 03:46:26;;;;;;;10.35;6.03;;;;;;;23.86;51.99;101578.88;5030095;28;20048;-61
2023/09/30 03:48:55;;;;;;;6.35;5.65;;;;;;;23.85;51.69;101582.56;5027634;28;20045;-61
2023/09/30 03:51:25;;;;;;;7.45;5.93;;;;;;;23.85;52.01;101575.31;5030744;28;20514;-61
2023/09/30 03:53:52;;;;;;;7.03;5.88;;;;;;;23.84;51.78;101581.72;5030711;28;20056;-61
2023/09/30 03:56:22;;;;;;;5.78;5.13;;;;;;;23.84;51.76;101587.13;5029259;28;20046;-61
2023/09/30 03:58:49;;;;;;;6.53;4.85;;;;;;;23.84;51.95;101584.44;5025749;28;20053;-62
2023/09/30 04:01:16;;;;;;;6.75;5.55;;;;;;;23.85;51.61;101586.13;5030623;28;20049;-62
2023/09/30 04:03:44;;;;;;;7.43;6.55;;;;;;;23.84;51.89;101581.72;5030432;28;20046;-62
2023/09/30 04:06:12;;;;;;;7.70;5.65;;;;;;;23.86;51.78;101581.56;5029070;28;20049;-62
2023/09/30 04:08:39;;;;;;;7.53;5.72;;;;;;;23.85;51.89;101587.97;5020549;28;20064;-61
2023/09/30 04:11:07;;;;;;;6.47;5.70;;;;;;;23.86;51.96;101603.22;5030595;28;20048;-62
2023/09/30 04:13:34;;;;;;;6.40;5.70;;;;;;;23.85;51.99;101601.50;5030915;28;20038;-62
2023/09/30 04:16:02;;;;;;;6.78;5.78;;;;;;;23.85;51.71;101605.06;5028424;28;20385;-63
2023/09/30 04:18:30;;;;;;;6.55;5.32;;;;;;;23.86;51.58;101606.78;5027077;28;20042;-61
2023/09/30 04:20:57;;;;;;;6.25;5.28;;;;;;;23.85;51.55;101607.75;5030270;28;20072;-61
2023/09/30 04:23:25;;;;;;;6.90;6.03;;;;;;;23.86;51.65;101609.50;5030404;28;20045;-61
2023/09/30 04:25:53;;;;;;;6.38;5.78;;;;;;;23.86;51.64;101611.31;5028204;28;20056;-61
2023/09/30 04:28:20;;;;;;;6.70;5.47;;;;;;;23.86;51.85;101608.63;5027233;28;20050;-61
2023/09/30 04:30:49;;;;;;;5.97;5.38;;;;;;;23.86;51.88;101611.31;5030513;28;20052;-61
2023/09/30 04:33:20;;;;;;;8.02;6.95;;;;;;;23.86;51.92;101614.03;5029848;28;20045;-63
2023/09/30 04:35:47;;;;;;;7.28;5.75;;;;;;;23.85;51.86;101613.19;5027394;28;20064;-63
2023/09/30 04:38:15;;;;;;;5.70;5.15;;;;;;;23.86;51.79;101614.03;5027804;28;20050;-63
2023/09/30 04:40:44;;;;;;;5.57;5.03;;;;;;;23.85;52.06;101618.59;5030024;28;20399;-61
2023/09/30 04:43:12;;;;;;;6.70;5.03;;;;;;;23.86;51.79;101620.31;5029539;28;20045;-60
2023/09/30 04:45:40;;;;;;;6.47;5.65;;;;;;;23.85;52.08;101618.59;5027159;28;20061;-60
2023/09/30 04:48:07;;;;;;;7.22;6.03;;;;;;;23.86;52.08;101619.44;5028038;28;20046;-60
2023/09/30 04:50:35;;;;;;;6.95;5.93;;;;;;;23.85;51.76;101613.19;5029734;28;20049;-61
2023/09/30 04:53:03;;;;;;;6.20;5.53;;;;;;;23.86;51.74;101614.03;5029566;28;20053;-61
2023/09/30 04:55:30;;;;;;;7.55;6.00;;;;;;;23.86;51.97;101619.44;5026819;28;20057;-58
2023/09/30 04:57:58;;;;;;;8.82;6.03;;;;;;;23.84;51.58;101624.16;5028070;28;20053;-58
2023/09/30 05:00:25;;;;;;;6.90;6.20;;;;;;;23.82;51.41;101612.59;5029711;28;20056;-58
2023/09/30 05:02:55;;;;;;;7.50;6.72;;;;;;;23.77;50.83;101615.72;5029617;28;20041;-58
2023/09/30 05:05:23;;;;;;;7.85;6.85;;;;;;;23.74;50.93;101609.75;5026168;28;20049;-58
2023/09/30 05:07:50;;;;;;;8.10;6.75;;;;;;;23.68;50.63;101601.22;5028084;28;20045;-58
2023/09/30 05:10:19;;;;;;;6.97;6.22;;;;;;;23.64;50.61;101602.47;5029633;28;20041;-59
2023/09/30 05:12:46;;;;;;;8.35;6.47;;;;;;;23.61;50.71;101602.75;5028739;28;20381;-59
2023/09/30 05:15:16;;;;;;;7.13;6.43;;;;;;;23.58;50.46;101611.16;5025770;28;20056;-59
2023/09/30 05:17:45;;;;;;;8.98;6.75;;;;;;;23.56;50.51;101615.00;5028065;28;20522;-59
2023/09/30 05:20:13;;;;;;;7.18;6.47;;;;;;;23.53;50.48;101618.81;5029464;28;20429;-58
2023/09/30 05:22:42;;;;;;;7.20;6.47;;;;;;;23.52;50.38;101616.25;5033951;28;20046;-58
2023/09/30 05:25:10;;;;;;;8.82;6.97;;;;;;;23.50;50.46;101624.53;5025479;28;20056;-58
2023/09/30 05:27:38;;;;;;;8.27;7.43;;;;;;;23.50;50.66;101629.03;5028645;28;20041;-58
2023/09/30 05:30:07;;;;;;;7.68;6.88;;;;;;;23.48;50.78;101631.06;5027847;28;20061;-58
2023/09/30 05:32:38;;;;;;;7.90;6.80;;;;;;;23.47;51.01;101642.88;5028673;28;20042;-58
2023/09/30 05:35:12;;;;;;;10.65;7.20;;;;;;;23.45;50.81;101642.97;5025805;28;20050;-58
2023/09/30 05:37:41;;;;;;;8.25;7.18;;;;;;;23.43;50.96;101635.03;5029178;28;20056;-58
2023/09/30 05:40:21;;;;;;;8.48;7.15;;;;;;;23.42;50.76;101633.31;5028789;28;20057;-58
2023/09/30 05:42:52;;;;;;;8.30;7.20;;;;;;;23.41;50.83;101634.28;5026274;28;20041;-58
2023/09/30 05:45:19;;;;;;;7.63;6.82;;;;;;;23.41;50.70;101633.44;5028754;28;20052;-58
2023/09/30 05:47:47;;;;;;;7.80;7.10;;;;;;;23.39;50.78;101630.91;5028703;28;20046;-58
2023/09/30 05:50:24;;;;;;;8.75;7.05;;;;;;;23.38;50.51;101625.66;5028167;28;20073;-58
2023/09/30 05:52:53;;;;;;;8.80;6.97;;;;;;;23.36;50.44;101627.63;5022504;28;20045;-58
2023/09/30 05:55:22;;;;;;;9.05;7.13;;;;;;;23.35;50.34;101632.16;5028750;28;20049;-58
2023/09/30 05:57:49;;;;;;;9.07;7.72;;;;;;;23.34;50.46;101633.16;5028724;28;20049;-58
2023/09/30 06:00:30;;;;;;;8.25;7.45;;;;;;;23.33;50.41;101634.13;5026337;28;20060;-58
2023/09/30 06:02:58;;;;;;;8.15;7.25;;;;;;;23.33;50.16;101642.25;5027840;28;20037;-58
2023/09/30 06:05:29;;;;;;;8.95;7.53;;;;;;;23.32;50.25;101640.53;5028664;28;20056;-58
2023/09/30 06:07:57;;;;;;;8.80;7.90;;;;;;;23.34;50.46;101648.53;5028043;28;20048;-58
2023/09/30 06:10:25;;;;;;;8.93;7.47;;;;;;;23.34;50.38;101645.81;5024864;28;20054;-58
2023/09/30 06:12:57;;;;;;;8.23;7.43;;;;;;;23.34;50.23;101648.53;5028090;28;20046;-58
2023/09/30 06:15:28;;;;;;;8.77;7.85;;;;;;;23.35;50.27;101658.34;5028414;28;20480;-58
2023/09/30 06:17:57;;;;;;;9.70;7.70;;;;;;;23.35;50.24;101656.47;5026718;28;20121;-58
2023/09/30 06:20:26;;;;;;;8.20;7.30;;;;;;;23.36;50.33;101660.88;5025558;28;20048;-58
2023/09/30 06:22:55;;;;;;;7.80;6.90;;;;;;;23.36;50.52;101662.75;5028303;28;20068;-58
2023/09/30 06:25:27;;;;;;;7.90;6.85;;;;;;;23.38;50.35;101671.56;5028341;28;20050;-58
2023/09/30 06:27:54;;;;;;;8.32;6.50;;;;;;;23.38;50.25;101669.72;5025631;28;20049;-58
2023/09/30 06:30:33;;;;;;;8.02;6.72;;;;;;;23.40;50.55;101678.53;5026340;28;20053;-58
2023/09/30 06:33:04;;;;;;;8.48;6.97;;;;;;;23.43;50.38;101683.66;5028711;28;20041;-58
2023/09/30 06:35:40;;;;;;;9.40;6.47;;;;;;;23.45;50.58;101683.53;5027347;28;20054;-58
2023/09/30 06:38:07;;;;;;;8.13;7.20;;;;;;;23.48;50.17;101691.34;5020027;28;20054;-59
2023/09/30 06:40:35;;;;;;;7.80;7.00;;;;;;;23.49;50.19;101682.25;5026854;28;20050;-58
2023/09/30 06:43:07;;;;;;;7.05;6.35;;;;;;;23.51;50.49;101691.09;5032160;28;20518;-59
2023/09/30 06:45:41;;;;;;;9.27;7.60;;;;;;;23.54;50.58;101688.13;5029651;28;20475;-59
2023/09/30 06:48:12;;;;;;;8.18;6.90;;;;;;;23.56;50.27;101685.25;5030702;28;20049;-59
2023/09/30 06:50:44;;;;;;;7.40;6.50;;;;;;;23.58;50.15;101681.44;5032253;28;20076;-59
2023/09/30 06:53:12;;;;;;;7.68;6.95;;;;;;;23.60;50.15;101668.63;5031711;28;20045;-58
2023/09/30 06:55:39;;;;;;;7.45;6.75;;;;;;;23.62;50.07;101663.09;5028225;28;20432;-58
2023/09/30 06:58:08;;;;;;;8.45;7.05;;;;;;;23.65;50.11;101670.91;5031913;28;20045;-58
2023/09/30 07:00:41;;;;;;;7.53;6.70;;;;;;;23.67;50.44;101664.41;5032196;28;20054;-58
2023/09/30 07:03:09;;;;;;;6.95;6.13;;;;;;;23.70;50.59;101666.00;5030395;28;20503;-58
2023/09/30 07:05:36;;;;;;;7.57;6.55;;;;;;;23.73;50.23;101656.72;5025282;28;20045;-58
2023/09/30 07:08:04;;;;;;;8.38;6.70;;;;;;;23.75;50.13;101662.84;5031550;28;20053;-58
2023/09/30 07:10:31;;;;;;;7.20;6.40;;;;;;;23.76;50.12;101659.16;5031699;28;20049;-58
2023/09/30 07:13:02;;;;;;;7.05;5.75;;;;;;;23.78;50.28;101659.84;5030199;28;20045;-58
2023/09/30 07:15:30;;;;;;;5.93;5.32;;;;;;;23.79;50.48;101654.31;5026293;28;20411;-58
2023/09/30 07:17:57;;;;;;;7.70;6.32;;;;;;;23.80;50.70;101652.47;5031297;28;20046;-58
2023/09/30 07:20:25;;;;;;;7.05;5.80;;;;;;;23.81;50.69;101648.75;5031995;28;20053;-56
2023/09/30 07:22:52;;;;;;;7.13;6.10;;;;;;;23.84;50.90;101656.59;5029589;28;20053;-58
2023/09/30 07:25:34;;;;;;;7.18;6.00;;;;;;;23.85;50.71;101658.28;5029135;28;20057;-58
2023/09/30 07:28:02;;;;;;;6.68;5.72;;;;;;;23.87;50.90;101661.72;5031348;28;20045;-57
2023/09/30 07:30:29;;;;;;;8.40;6.75;;;;;;;23.88;50.69;101655.31;5031128;28;20054;-57
2023/09/30 07:32:56;;;;;;;6.90;5.55;;;;;;;23.89;51.01;101663.28;5027393;28;20042;-58
2023/09/30 07:35:24;;;;;;;6.68;6.00;;;;;;;23.89;50.43;101657.88;5030194;28;20065;-57
2023/09/30 07:37:53;;;;;;;7.88;6.30;;;;;;;23.90;50.55;101659.59;5031209;28;20048;-58
2023/09/30 07:40:21;;;;;;;7.90;6.85;;;;;;;23.91;50.73;101664.00;5030657;28;20056;-57
2023/09/30 07:42:49;;;;;;;9.80;6.28;;;;;;;23.90;50.78;101662.31;5014525;28;20041;-55
2023/09/30 07:45:17;;;;;;;7.88;6.40;;;;;;;23.89;50.70;101657.88;5021331;28;20053;-64
2023/09/30 07:47:46;;;;;;;9.93;6.50;;;;;;;23.88;50.92;101666.97;5024379;28;20045;-62
2023/09/30 07:50:13;;;;;;;7.53;6.47;;;;;;;23.87;50.64;101669.84;5020685;28;20049;-64
2023/09/30 07:52:42;;;;;;;7.88;6.80;;;;;;;23.83;50.65;101679.22;4998800;28;20055;-65
2023/09/30 07:55:09;;;;;;;9.50;8.57;;;;;;;23.75;50.27;101692.59;5033384;28;20041;-66
2023/09/30 07:57:41;;;;;;;8.45;7.65;;;;;;;23.60;49.73;101709.16;5033266;28;20050;-67
2023/09/30 08:00:09;;;;;;;7.05;6.13;;;;;;;23.50;50.15;101705.59;5031684;28;20076;-65
2023/09/30 08:02:37;;;;;;;8.32;7.38;;;;;;;23.44;49.82;101706.13;5033109;28;20041;-64
2023/09/30 08:05:06;;;;;;;11.32;7.03;;;;;;;23.38;50.06;101712.97;5033496;28;20053;-65
2023/09/30 08:07:34;;;;;;;9.20;6.88;;;;;;;23.35;50.11;101717.78;5033365;28;20060;-64
2023/09/30 08:10:05;;;;;;;7.93;6.25;;;;;;;23.31;49.98;101719.91;5031811;28;20053;-65
2023/09/30 08:12:33;;;;;;;7.28;6.10;;;;;;;23.27;49.97;101721.16;5028152;28;20056;-65
2023/09/30 08:15:03;;;;;;;7.13;6.18;;;;;;;23.24;50.04;101720.56;5033584;28;20041;-65
2023/09/30 08:17:32;;;;;;;8.75;6.00;;;;;;;23.23;50.23;101725.13;5032847;28;20046;-65
2023/09/30 08:19:59;;;;;;;6.70;5.60;;;;;;;23.22;49.98;101727.97;5029540;28;20064;-67
2023/09/30 08:22:27;;;;;;;6.47;5.45;;;;;;;23.20;49.99;101731.66;5033289;28;20041;-67
2023/09/30 08:24:55;;;;;;;6.97;5.15;;;;;;;23.20;49.86;101723.53;5032807;28;20048;-66
2023/09/30 08:27:24;;;;;;;5.78;4.80;;;;;;;23.23;49.65;101718.88;5032849;28;20503;-67
2023/09/30 08:29:52;;;;;;;8.10;5.18;;;;;;;23.25;49.88;101723.13;5031633;28;20420;-66
2023/09/30 08:32:19;;;;;;;9.25;5.82;;;;;;;23.27;50.11;101720.31;5032800;28;20113;-67
2023/09/30 08:34:47;;;;;;;8.30;5.22;;;;;;;23.29;50.28;101721.00;5032986;28;20499;-67
2023/09/30 08:37:15;;;;;;;8.45;5.15;;;;;;;23.31;49.83;101732.56;5043006;28;20064;-67
2023/09/30 08:39:42;;;;;;;5.70;5.03;;;;;;;23.32;49.92;101728.84;5030622;28;20053;-66
2023/09/30 08:42:13;;;;;;;5.70;5.10;;;;;;;23.33;49.61;101727.84;5032297;28;20049;-62
2023/09/30 08:44:41;;;;;;;7.28;5.13;;;;;;;23.32;49.35;101728.84;5033010;28;20396;-64
2023/09/30 08:47:11;;;;;;;6.57;4.68;;;;;;;23.29;48.98;101732.66;5032278;28;20412;-62
2023/09/30 08:49:40;;;;;;;6.25;4.30;;;;;;;23.29;49.09;101723.72;5031894;28;20068;-71
2023/09/30 08:52:10;;;;;;;5.97;4.93;;;;;;;23.29;48.66;101735.38;5022579;28;20041;-70
2023/09/30 08:54:38;;;;;;;7.38;5.13;;;;;;;23.29;48.46;101734.53;5015902;28;20045;-69
2023/09/30 08:57:09;;;;;;;6.53;5.43;;;;;;;23.30;48.58;101736.25;5029929;28;20053;-68
2023/09/30 08:59:41;;;;;;;6.38;5.00;;;;;;;23.32;48.80;101745.06;5026452;28;20052;-63
2023/09/30 09:02:10;;;;;;;5.97;5.22;;;;;;;23.33;48.70;101735.97;5023283;28;20500;-63
2023/09/30 09:04:37;;;;;;;8.63;4.80;;;;;;;23.35;48.63;101736.69;5032163;28;20041;-63
2023/09/30 09:07:05;;;;;;;6.95;5.18;;;;;;;23.36;48.46;101728.44;5031062;28;20396;-63
2023/09/30 09:09:33;;;;;;;7.32;5.40;;;;;;;23.38;48.66;101736.44;5032073;28;20510;-70
2023/09/30 09:12:01;;;;;;;6.35;5.25;;;;;;;23.39;48.63;101733.56;5021608;28;20042;-70
2023/09/30 09:14:46;;;;;;;7.25;4.85;;;;;;;23.41;48.04;101728.03;5027454;28;20052;-69
2023/09/30 09:17:14;;;;;;;6.85;5.25;;;;;;;23.41;48.04;101728.88;5030220;28;20503;-69
2023/09/30 09:19:41;;;;;;;6.53;5.38;;;;;;;23.44;47.91;101730.47;5033014;28;20045;-69
2023/09/30 09:22:09;;;;;;;5.85;5.22;;;;;;;23.42;47.81;101724.34;5031632;28;20492;-69
2023/09/30 09:24:38;;;;;;;5.75;4.68;;;;;;;23.44;47.72;101731.31;5031997;28;20052;-69
2023/09/30 09:27:11;;;;;;;7.57;5.45;;;;;;;23.46;47.57;101720.38;5032251;28;20480;-70
2023/09/30 09:29:39;;;;;;;6.10;5.13;;;;;;;23.47;47.64;101721.25;5011803;28;20049;-63
2023/09/30 09:32:15;;;;;;;7.40;5.68;;;;;;;23.47;47.44;101711.28;5033324;28;20041;-63
2023/09/30 09:34:45;;;;;;;6.03;5.07;;;;;;;23.48;47.53;101714.84;5032563;28;20052;-63
2023/09/30 09:37:22;;;;;;;5.43;4.85;;;;;;;23.48;47.08;101704.03;5032222;28;20064;-63
2023/09/30 09:39:55;;;;;;;5.50;4.63;;;;;;;23.49;47.08;101703.88;5033459;28;20491;-69
2023/09/30 09:42:33;;;;;;;6.78;5.07;;;;;;;23.51;47.44;101706.47;5032999;28;20045;-70
2023/09/30 09:45:05;;;;;;;7.63;5.45;;;;;;;23.53;47.69;101701.75;5029230;28;20041;-69
2023/09/30 09:47:33;;;;;;;5.47;4.88;;;;;;;23.54;47.82;101712.44;5032978;28;20049;-70
2023/09/30 09:50:03;;;;;;;5.65;4.50;;;;;;;23.56;47.58;101706.88;5031393;28;20041;-70
2023/09/30 09:52:33;;;;;;;6.38;5.10;;;;;;;23.57;48.03;101712.16;5028633;28;20057;-70
2023/09/30 09:55:02;;;;;;;6.68;5.50;;;;;;;23.60;47.82;101711.03;5008015;28;20044;-71
2023/09/30 09:57:31;;;;;;;8.27;5.28;;;;;;;23.62;48.19;101717.16;5032530;28;20056;-70
2023/09/30 09:59:59;;;;;;;6.80;4.80;;;;;;;23.65;47.95;101719.56;5031403;28;20049;-63
2023/09/30 10:02:29;;;;;;;6.35;4.68;;;;;;;23.67;48.38;101714.91;5030069;28;20048;-63
2023/09/30 10:04:57;;;;;;;7.50;5.43;;;;;;;23.69;48.32;101711.06;5032333;28;20037;-63
2023/09/30 10:07:32;;;;;;;6.00;4.90;;;;;;;23.72;48.53;101709.94;5032387;28;20045;-66
2023/09/30 10:10:02;;;;;;;5.70;5.10;;;;;;;23.74;48.66;101704.38;5033179;28;20400;-71
2023/09/30 10:12:36;;;;;;;5.35;4.63;;;;;;;23.76;48.46;101705.13;5027047;28;20405;-71
2023/09/30 10:15:43;;;;;;;7.47;5.30;;;;;;;23.76;48.69;101695.16;5032480;28;20049;-65
2023/09/30 10:18:11;;;;;;;6.82;5.22;;;;;;;23.79;48.80;101703.00;4973806;28;20047;-64
2023/09/30 10:20:48;;;;;;;8.50;5.15;;;;;;;23.81;48.48;101694.72;4975798;28;20058;-65
2023/09/30 10:23:33;;;;;;;7.32;5.15;;;;;;;23.82;48.85;101701.84;4975174;28;20166;-65
2023/09/30 10:26:13;;;;;;;6.95;5.03;;;;;;;23.83;48.64;101698.16;4975225;28;20046;-65
2023/09/30 10:28:46;;;;;;;6.15;5.07;;;;;;;23.83;49.01;101701.72;4975671;28;20433;-65
2023/09/30 10:31:19;;;;;;;8.35;5.38;;;;;;;23.84;48.95;101703.41;4975299;28;20501;-65
2023/09/30 10:34:02;;;;;;;5.82;4.35;;;;;;;23.87;48.68;101696.88;4975043;28;20528;-65
2023/09/30 10:36:41;;;;;;;7.18;4.50;;;;;;;23.87;48.94;101697.72;4966715;28;20069;-64
2023/09/30 10:39:18;;;;;;;5.90;4.95;;;;;;;23.90;49.05;101699.28;4975585;28;20062;-65
2023/09/30 10:41:45;;;;;;;6.93;5.38;;;;;;;23.90;48.78;101705.56;4975005;28;20066;-65
2023/09/30 10:44:22;;;;;;;7.40;5.22;;;;;;;23.92;48.76;101702.72;4975009;28;20053;-65
2023/09/30 10:46:50;;;;;;;7.55;6.55;;;;;;;23.93;48.56;101704.41;4975240;28;20054;-65
2023/09/30 10:49:38;;;;;;;7.75;5.90;;;;;;;23.93;48.95;101712.53;4989449;28;20055;-65
2023/09/30 10:52:06;;;;;;;6.80;5.88;;;;;;;23.95;48.57;101712.41;5034247;28;20484;-65
2023/09/30 10:54:34;;;;;;;6.28;5.60;;;;;;;23.96;48.45;101725.78;5018720;28;20054;-65
2023/09/30 10:57:03;;;;;;;6.65;5.70;;;;;;;23.98;48.52;101712.94;5022542;28;20052;-65
2023/09/30 10:59:32;;;;;;;8.18;5.60;;;;;;;23.98;48.52;101702.13;5028849;28;20060;-65
2023/09/30 11:01:59;;;;;;;6.07;5.22;;;;;;;23.99;48.43;101711.97;5031070;28;20369;-65
2023/09/30 11:04:28;;;;;;;6.47;5.53;;;;;;;24.00;48.33;101704.72;5034101;28;20041;-65
2023/09/30 11:06:57;;;;;;;8.90;6.00;;;;;;;24.02;48.59;101700.00;5032854;28;20057;-65
2023/09/30 11:09:24;;;;;;;7.85;5.28;;;;;;;24.03;48.78;101693.63;5031517;28;20049;-65
2023/09/30 11:11:53;;;;;;;6.63;5.60;;;;;;;24.03;48.73;101691.75;5012427;28;20052;-65
2023/09/30 11:14:31;;;;;;;7.50;5.75;;;;;;;24.04;48.86;101693.47;5032004;28;20048;-65
2023/09/30 11:17:01;;;;;;;8.35;6.00;;;;;;;24.06;48.72;101682.50;5029634;28;20042;-64
2023/09/30 11:19:39;;;;;;;8.68;6.07;;;;;;;24.06;49.01;101686.03;5030507;28;20049;-64
2023/09/30 11:22:07;;;;;;;7.43;6.32;;;;;;;24.07;48.89;101673.41;5031470;28;20041;-64
2023/09/30 11:24:37;;;;;;;6.65;5.38;;;;;;;24.09;48.72;101669.53;5030114;28;20060;-65
2023/09/30 11:27:05;;;;;;;8.32;5.90;;;;;;;24.09;48.35;101665.97;5027699;28;20050;-65
2023/09/30 11:29:32;;;;;;;8.20;6.15;;;;;;;24.10;48.39;101671.25;5032751;28;20048;-65
2023/09/30 11:32:01;;;;;;;7.35;6.15;;;;;;;24.12;48.52;101673.81;5032713;28;20037;-65
2023/09/30 11:34:34;;;;;;;7.25;5.85;;;;;;;24.12;48.52;101669.25;5032423;28;20485;-65